Time;durP1;ratioP1;P1;durP2;ratioP2;P2;SDS_P1;SDS_P2;PMS_P1;PMS_P2;Temp;Humidity;BMP_temperature;BMP_pressure;BME280_temperature;BME280_humidity;BME280_pressure;Samples;Min_cycle;Max_cycle;Signal;HPM_P1;HPM_P2
2021/01/03 00:00:58;;;;;;;7.43;4.35;;;;;;;2.26;nan;95758.38;4883630;29;20231;-68
2021/01/03 00:03:25;;;;;;;9.43;5.07;;;;;;;2.14;nan;95752.06;4891189;29;20620;-67
2021/01/03 00:05:53;;;;;;;8.82;5.05;;;;;;;2.15;nan;95746.00;4882923;29;20207;-68
2021/01/03 00:08:21;;;;;;;7.57;5.00;;;;;;;2.14;nan;95744.34;4881962;29;20317;-67
2021/01/03 00:10:51;;;;;;;14.85;5.20;;;;;;;2.11;nan;95741.09;4884226;29;20895;-68
2021/01/03 00:13:18;;;;;;;8.40;4.10;;;;;;;2.20;nan;95744.09;4883654;29;20540;-68
2021/01/03 00:15:45;;;;;;;8.38;4.28;;;;;;;2.20;nan;95738.97;4889813;29;20238;-67
2021/01/03 00:18:12;;;;;;;8.70;4.40;;;;;;;2.22;nan;95746.59;4882270;29;20264;-68
2021/01/03 00:20:38;;;;;;;9.13;4.28;;;;;;;2.19;nan;95742.44;4882404;29;20273;-68
2021/01/03 00:23:05;;;;;;;7.30;4.72;;;;;;;2.20;nan;95735.59;4882543;29;20748;-67
2021/01/03 00:25:33;;;;;;;6.55;4.32;;;;;;;2.08;nan;95741.22;4883146;29;20606;-69
2021/01/03 00:28:00;;;;;;;7.10;4.32;;;;;;;1.99;nan;95742.44;4876188;29;20278;-69
2021/01/03 00:30:28;;;;;;;7.25;4.55;;;;;;;1.99;nan;95734.75;4882611;29;20660;-68
2021/01/03 00:32:57;;;;;;;6.20;3.92;;;;;;;1.99;nan;95729.63;4881870;29;20759;-67
2021/01/03 00:35:29;;;;;;;8.07;4.65;;;;;;;2.04;nan;95743.09;4886609;29;20607;-67
2021/01/03 00:38:00;;;;;;;7.15;4.43;;;;;;;2.04;nan;95737.97;4881828;29;20868;-68
2021/01/03 00:40:28;;;;;;;20.25;7.80;;;;;;;2.02;nan;95737.19;4883114;29;20204;-68
2021/01/03 00:42:56;;;;;;;13.32;6.53;;;;;;;2.04;nan;95732.84;4883285;29;20574;-66
2021/01/03 00:45:23;;;;;;;13.98;5.10;;;;;;;2.05;nan;95739.63;4882570;29;20205;-66
2021/01/03 00:47:50;;;;;;;7.35;4.38;;;;;;;2.05;nan;95729.34;4882216;29;20855;-66
2021/01/03 00:50:18;;;;;;;7.85;4.53;;;;;;;2.11;nan;95735.94;4883565;29;20712;-66
2021/01/03 00:52:45;;;;;;;7.28;4.63;;;;;;;2.06;nan;95728.47;4887808;29;20347;-66
2021/01/03 00:55:13;;;;;;;8.80;4.78;;;;;;;2.04;nan;95732.84;4882848;29;20736;-66
2021/01/03 00:57:39;;;;;;;7.95;4.65;;;;;;;1.96;nan;95729.75;4881649;29;20955;-66
2021/01/03 01:00:11;;;;;;;8.80;5.28;;;;;;;1.99;nan;95732.19;4883219;29;20230;-66
2021/01/03 01:02:39;;;;;;;6.93;4.20;;;;;;;1.97;nan;95741.69;4888697;29;20233;-67
2021/01/03 01:05:07;;;;;;;10.35;4.45;;;;;;;1.97;nan;95736.56;4886199;29;20592;-67
2021/01/03 01:07:34;;;;;;;7.18;4.30;;;;;;;2.03;nan;95733.72;4881115;29;20643;-67
2021/01/03 01:10:01;;;;;;;7.45;4.70;;;;;;;2.06;nan;95741.28;4885565;29;20304;-67
2021/01/03 01:12:28;;;;;;;10.07;5.10;;;;;;;2.12;nan;95735.91;4884188;29;20510;-69
2021/01/03 01:14:55;;;;;;;8.30;4.65;;;;;;;2.14;nan;95734.09;4881477;29;20707;-67
2021/01/03 01:17:23;;;;;;;10.68;5.22;;;;;;;2.15;nan;95738.31;4880852;29;20627;-67
2021/01/03 01:19:49;;;;;;;8.32;5.50;;;;;;;2.08;nan;95739.50;4881415;29;20304;-67
2021/01/03 01:22:16;;;;;;;7.70;4.97;;;;;;;2.08;nan;95736.94;4881083;29;20767;-67
2021/01/03 01:24:43;;;;;;;7.35;4.38;;;;;;;2.05;nan;95734.50;4883166;29;20736;-67
2021/01/03 01:27:10;;;;;;;7.45;3.92;;;;;;;1.97;nan;95736.56;4880707;29;20226;-68
2021/01/03 01:29:36;;;;;;;6.75;4.32;;;;;;;1.90;nan;95740.28;4882572;29;20256;-67
2021/01/03 01:32:03;;;;;;;8.00;5.38;;;;;;;1.96;nan;95739.19;4882141;29;20671;-67
2021/01/03 01:34:31;;;;;;;7.50;4.45;;;;;;;2.04;nan;95744.81;4881653;29;20205;-67
2021/01/03 01:36:58;;;;;;;11.23;4.93;;;;;;;2.02;nan;95744.91;4885148;29;20230;-67
2021/01/03 01:39:25;;;;;;;8.27;4.30;;;;;;;2.01;nan;95748.38;4882839;29;20310;-67
2021/01/03 01:41:51;;;;;;;8.90;4.75;;;;;;;1.93;nan;95742.69;4881529;29;20230;-66
2021/01/03 01:44:18;;;;;;;6.10;4.05;;;;;;;2.00;nan;95744.09;4881310;29;20276;-67
2021/01/03 01:46:52;;;;;;;8.10;4.80;;;;;;;1.95;nan;95743.50;4880935;29;20275;-67
2021/01/03 01:49:19;;;;;;;7.50;4.55;;;;;;;1.89;nan;95743.75;4877868;29;20209;-67
2021/01/03 01:51:52;;;;;;;8.80;4.60;;;;;;;1.85;nan;95751.63;4880961;29;20619;-67
2021/01/03 01:54:23;;;;;;;9.63;4.47;;;;;;;1.88;nan;95747.22;4877410;29;20229;-67
2021/01/03 01:56:55;;;;;;;9.93;5.03;;;;;;;1.99;nan;95749.31;4880850;29;20671;-67
2021/01/03 01:59:30;;;;;;;9.32;5.45;;;;;;;2.02;nan;95755.16;4878805;29;20660;-67
2021/01/03 02:02:03;;;;;;;8.73;4.50;;;;;;;2.04;nan;95744.81;4881232;29;20677;-67
2021/01/03 02:04:33;;;;;;;9.13;4.28;;;;;;;1.79;nan;95737.34;4881218;29;20692;-65
2021/01/03 02:07:06;;;;;;;12.98;4.97;;;;;;;1.87;nan;95745.56;4881282;29;20767;-67
2021/01/03 02:09:42;;;;;;;8.73;5.03;;;;;;;1.84;nan;95745.66;4882739;29;20645;-67
2021/01/03 02:12:13;;;;;;;8.82;4.95;;;;;;;1.89;nan;95737.78;4880967;29;20222;-67
2021/01/03 02:14:41;;;;;;;8.57;5.35;;;;;;;1.82;nan;95742.34;4881343;29;20576;-67
2021/01/03 02:17:08;;;;;;;11.45;5.60;;;;;;;1.75;nan;95740.06;4881741;29;20284;-67
2021/01/03 02:19:36;;;;;;;9.00;4.22;;;;;;;1.87;nan;95742.13;4880594;29;20205;-67
2021/01/03 02:22:13;;;;;;;11.88;5.80;;;;;;;1.88;nan;95736.94;4880209;29;20764;-66
2021/01/03 02:24:45;;;;;;;10.70;5.72;;;;;;;1.89;nan;95738.63;4881730;29;20577;-67
2021/01/03 02:27:21;;;;;;;10.07;5.35;;;;;;;1.84;nan;95737.97;4880024;29;20657;-67
2021/01/03 02:29:51;;;;;;;8.93;5.32;;;;;;;1.94;nan;95741.81;4881477;29;20208;-67
2021/01/03 02:32:20;;;;;;;10.75;5.95;;;;;;;1.94;nan;95733.28;4875072;29;20664;-68
2021/01/03 02:34:49;;;;;;;12.68;6.15;;;;;;;1.95;nan;95738.38;4881884;29;20215;-68
2021/01/03 02:37:21;;;;;;;9.63;5.97;;;;;;;1.96;nan;95740.03;4883319;29;20222;-68
2021/01/03 02:39:53;;;;;;;13.80;6.75;;;;;;;1.96;nan;95740.03;4880379;29;20301;-67
2021/01/03 02:42:25;;;;;;;10.80;6.30;;;;;;;1.94;nan;95735.84;4878791;29;20687;-68
2021/01/03 02:44:53;;;;;;;9.60;5.28;;;;;;;1.83;nan;95730.34;4879698;29;20604;-68
2021/01/03 02:47:23;;;;;;;8.70;5.50;;;;;;;1.83;nan;95733.75;4880327;29;20244;-69
2021/01/03 02:49:51;;;;;;;9.57;5.60;;;;;;;1.78;nan;95724.56;4880121;29;20208;-69
2021/01/03 02:52:24;;;;;;;9.35;6.20;;;;;;;1.88;nan;95734.38;4880302;29;20229;-69
2021/01/03 02:54:52;;;;;;;8.23;5.07;;;;;;;1.77;nan;95728.84;4881646;29;20790;-69
2021/01/03 02:57:19;;;;;;;11.38;6.57;;;;;;;1.77;nan;95734.00;4879601;29;20301;-68
2021/01/03 02:59:46;;;;;;;9.88;6.20;;;;;;;1.79;nan;95732.22;4880470;29;20617;-68
2021/01/03 03:02:13;;;;;;;12.25;6.93;;;;;;;1.87;nan;95735.28;4879813;29;20323;-68
2021/01/03 03:04:40;;;;;;;12.15;7.03;;;;;;;1.82;nan;95731.22;4883766;29;20539;-68
2021/01/03 03:07:07;;;;;;;10.20;7.18;;;;;;;1.88;nan;95731.81;4882637;29;20225;-69
2021/01/03 03:09:34;;;;;;;11.40;6.80;;;;;;;1.83;nan;95723.47;4881369;29;20317;-69
2021/01/03 03:12:01;;;;;;;15.90;7.25;;;;;;;1.93;nan;95732.44;4879670;29;20256;-67
2021/01/03 03:14:28;;;;;;;10.52;6.50;;;;;;;1.90;nan;95730.00;4884225;29;20285;-67
2021/01/03 03:16:57;;;;;;;13.18;7.22;;;;;;;1.84;nan;95724.31;4883582;29;20232;-68
2021/01/03 03:19:23;;;;;;;11.15;7.00;;;;;;;1.81;nan;95725.28;4884189;29;20289;-67
2021/01/03 03:21:50;;;;;;;10.38;7.10;;;;;;;1.83;nan;95720.91;4883460;29;20259;-68
2021/01/03 03:24:18;;;;;;;14.73;7.75;;;;;;;1.89;nan;95722.38;4885898;29;20284;-67
2021/01/03 03:26:50;;;;;;;11.48;6.63;;;;;;;1.96;nan;95719.50;4883412;29;20312;-67
2021/01/03 03:29:20;;;;;;;10.27;7.25;;;;;;;1.83;nan;95708.09;4878801;29;20203;-68
2021/01/03 03:31:47;;;;;;;11.20;6.95;;;;;;;1.90;nan;95719.75;4894321;29;20808;-68
2021/01/03 03:34:15;;;;;;;13.75;7.63;;;;;;;1.90;nan;95724.88;4883165;29;20515;-66
2021/01/03 03:36:42;;;;;;;10.00;6.90;;;;;;;1.85;nan;95721.69;4887269;29;20619;-66
2021/01/03 03:39:12;;;;;;;12.05;7.22;;;;;;;1.86;nan;95720.78;4884032;29;20583;-67
2021/01/03 03:41:39;;;;;;;14.45;7.88;;;;;;;1.86;nan;95715.63;4882712;29;20252;-66
2021/01/03 03:44:06;;;;;;;12.18;7.90;;;;;;;1.69;nan;95722.41;4882916;29;20591;-66
2021/01/03 03:46:34;;;;;;;12.05;7.90;;;;;;;1.76;nan;95716.94;4882539;29;20328;-66
2021/01/03 03:49:01;;;;;;;13.43;7.80;;;;;;;1.79;nan;95715.97;4882029;29;20738;-65
2021/01/03 03:51:28;;;;;;;13.20;7.00;;;;;;;1.81;nan;95707.34;4883099;29;20732;-66
2021/01/03 03:53:55;;;;;;;11.85;6.90;;;;;;;1.83;nan;95709.84;4885021;29;20561;-66
2021/01/03 03:56:22;;;;;;;14.05;8.07;;;;;;;1.82;nan;95706.44;4882317;29;20730;-67
2021/01/03 03:58:49;;;;;;;11.10;7.40;;;;;;;1.72;nan;95702.59;4883827;29;20257;-66
2021/01/03 04:01:17;;;;;;;15.50;8.55;;;;;;;1.67;nan;95704.50;4882665;29;20871;-66
2021/01/03 04:03:44;;;;;;;15.00;8.73;;;;;;;1.60;nan;95705.66;4888529;29;20256;-67
2021/01/03 04:06:10;;;;;;;15.85;8.32;;;;;;;1.67;nan;95707.06;4882297;29;20681;-67
2021/01/03 04:08:38;;;;;;;17.55;8.10;;;;;;;1.68;nan;95702.75;4882762;29;20646;-67
2021/01/03 04:11:05;;;;;;;13.38;8.32;;;;;;;1.72;nan;95705.16;4885271;29;20796;-68
2021/01/03 04:13:32;;;;;;;12.82;8.38;;;;;;;1.68;nan;95718.16;4882699;29;20234;-67
2021/01/03 04:15:59;;;;;;;16.58;9.60;;;;;;;1.73;nan;95705.97;4883618;29;20611;-67
2021/01/03 04:18:26;;;;;;;12.90;8.18;;;;;;;1.74;nan;95705.91;4882297;29;20229;-67
2021/01/03 04:20:53;;;;;;;15.30;9.00;;;;;;;1.81;nan;95694.50;4886487;29;20540;-67
2021/01/03 04:23:20;;;;;;;15.32;9.20;;;;;;;1.68;nan;95703.59;4889420;29;20289;-69
2021/01/03 04:25:59;;;;;;;17.58;9.60;;;;;;;1.57;nan;95704.97;4883214;29;20201;-67
2021/01/03 04:28:26;;;;;;;12.40;7.70;;;;;;;1.39;nan;95705.72;4882489;29;20324;-67
2021/01/03 04:30:53;;;;;;;21.05;10.77;;;;;;;1.43;nan;95702.97;4880728;29;20284;-68
2021/01/03 04:33:20;;;;;;;16.27;9.25;;;;;;;1.54;nan;95705.91;4888949;29;20248;-68
2021/01/03 04:35:48;;;;;;;20.45;9.90;;;;;;;1.60;nan;95710.78;4886359;29;20340;-68
2021/01/03 04:38:15;;;;;;;15.73;8.98;;;;;;;1.58;nan;95707.47;4884736;29;20229;-68
2021/01/03 04:40:41;;;;;;;15.52;9.68;;;;;;;1.64;nan;95714.06;4882522;29;20688;-68
2021/01/03 04:43:14;;;;;;;15.45;8.27;;;;;;;1.65;nan;95716.56;4883431;29;20229;-67
2021/01/03 04:45:45;;;;;;;15.90;9.23;;;;;;;1.47;nan;95713.94;4885013;29;20716;-68
2021/01/03 04:48:21;;;;;;;15.98;9.02;;;;;;;1.54;nan;95716.16;4881268;29;20930;-68
2021/01/03 04:51:21;;;;;;;14.65;8.27;;;;;;;1.59;nan;95715.97;4882134;29;20284;-68
2021/01/03 04:53:55;;;;;;;14.40;8.77;;;;;;;1.50;nan;95698.41;4867858;29;20229;-68
2021/01/03 04:56:27;;;;;;;14.10;8.45;;;;;;;1.62;nan;95714.13;4878868;29;20200;-68
2021/01/03 04:59:06;;;;;;;14.50;8.25;;;;;;;1.62;nan;95715.88;4879867;29;20723;-68
2021/01/03 05:02:10;;;;;;;12.02;7.93;;;;;;;1.67;nan;95721.63;4882352;29;20647;-68
2021/01/03 05:04:46;;;;;;;13.98;7.72;;;;;;;1.62;nan;95714.13;4881762;29;20528;-70
2021/01/03 05:07:18;;;;;;;19.17;10.48;;;;;;;1.84;nan;95716.63;4880793;29;20481;-68
2021/01/03 05:09:51;;;;;;;16.98;8.40;;;;;;;1.68;nan;95725.84;4882491;29;20320;-69
2021/01/03 05:12:28;;;;;;;13.40;7.93;;;;;;;1.62;nan;95719.25;4877103;29;20221;-69
2021/01/03 05:15:04;;;;;;;13.60;8.38;;;;;;;1.62;nan;95724.38;4881059;29;20205;-69
2021/01/03 05:17:31;;;;;;;14.68;8.60;;;;;;;1.62;nan;95729.50;4881173;29;20225;-68
2021/01/03 05:19:57;;;;;;;14.60;8.30;;;;;;;1.63;nan;95722.66;4880882;29;20692;-68
2021/01/03 05:22:30;;;;;;;16.63;7.70;;;;;;;1.69;nan;95730.91;4882374;29;20671;-66
2021/01/03 05:24:59;;;;;;;16.45;8.02;;;;;;;1.68;nan;95723.28;4882522;29;20316;-68
2021/01/03 05:27:28;;;;;;;12.75;8.05;;;;;;;1.71;nan;95726.53;4880854;29;20411;-67
2021/01/03 05:30:11;;;;;;;18.92;10.00;;;;;;;1.75;nan;95728.09;4878651;29;20202;-68
2021/01/03 05:32:38;;;;;;;19.42;8.25;;;;;;;1.77;nan;95731.44;4881637;29;20243;-67
2021/01/03 05:35:17;;;;;;;13.90;8.02;;;;;;;1.72;nan;95730.81;4889733;29;20592;-67
2021/01/03 05:37:45;;;;;;;17.63;9.45;;;;;;;1.66;nan;95720.81;4880860;29;20233;-68
2021/01/03 05:40:25;;;;;;;22.38;10.98;;;;;;;1.68;nan;95733.53;4880362;29;20787;-68
2021/01/03 05:43:07;;;;;;;22.38;10.80;;;;;;;1.62;nan;95734.63;4881086;29;20327;-68
2021/01/03 05:45:42;;;;;;;18.70;10.23;;;;;;;1.63;nan;95736.28;4881121;29;20237;-67
2021/01/03 05:48:20;;;;;;;21.10;11.70;;;;;;;1.64;nan;95735.38;4880666;29;20637;-69
2021/01/03 05:50:47;;;;;;;41.20;11.02;;;;;;;1.66;nan;95731.06;4880890;29;20538;-68
2021/01/03 05:53:20;;;;;;;18.52;10.25;;;;;;;1.63;nan;95715.78;4880481;29;20251;-67
2021/01/03 05:55:53;;;;;;;16.25;9.57;;;;;;;1.72;nan;95733.38;4881372;29;20241;-68
2021/01/03 05:58:25;;;;;;;18.17;9.63;;;;;;;1.74;nan;95728.16;4877134;29;20226;-68
2021/01/03 06:00:53;;;;;;;12.13;8.13;;;;;;;1.67;nan;95727.59;4881619;29;20220;-67
2021/01/03 06:03:24;;;;;;;14.13;8.35;;;;;;;1.61;nan;95732.97;4880882;29;20546;-67
2021/01/03 06:05:53;;;;;;;14.40;8.23;;;;;;;1.62;nan;95734.63;4881403;29;20236;-68
2021/01/03 06:08:24;;;;;;;15.05;9.05;;;;;;;1.60;nan;95728.75;4881001;29;20247;-67
2021/01/03 06:10:51;;;;;;;14.52;8.15;;;;;;;1.67;nan;95730.16;4890859;29;20264;-67
2021/01/03 06:13:23;;;;;;;13.05;8.98;;;;;;;1.59;nan;95718.53;4880750;29;20700;-67
2021/01/03 06:15:55;;;;;;;13.88;8.15;;;;;;;1.60;nan;95730.47;4884587;29;20257;-67
2021/01/03 06:18:36;;;;;;;13.93;9.30;;;;;;;1.68;nan;95725.84;4881640;29;20563;-67
2021/01/03 06:21:04;;;;;;;14.23;8.50;;;;;;;1.66;nan;95725.06;4876571;29;20803;-67
2021/01/03 06:23:35;;;;;;;14.77;8.73;;;;;;;1.73;nan;95737.59;4884262;29;20229;-67
2021/01/03 06:26:07;;;;;;;14.23;8.23;;;;;;;1.69;nan;95730.91;4879932;29;20602;-68
2021/01/03 06:28:45;;;;;;;13.48;7.75;;;;;;;1.65;nan;95728.53;4879970;29;20268;-67
2021/01/03 06:31:50;;;;;;;13.13;8.10;;;;;;;1.62;nan;95732.06;4886969;29;20586;-68
2021/01/03 06:34:27;;;;;;;13.30;7.53;;;;;;;1.65;nan;95728.53;4876114;29;20524;-68
2021/01/03 06:37:02;;;;;;;11.07;6.90;;;;;;;1.66;nan;95735.34;4884805;29;20691;-67
2021/01/03 06:39:38;;;;;;;8.52;7.00;;;;;;;1.67;nan;95737.00;4880172;29;20193;-68
2021/01/03 06:42:07;;;;;;;11.20;7.05;;;;;;;1.64;nan;95737.97;4880208;29;20668;-67
2021/01/03 06:45:15;;;;;;;11.25;7.78;;;;;;;1.67;nan;95742.97;4881110;29;20558;-67
2021/01/03 06:48:09;;;;;;;12.40;7.18;;;;;;;1.52;nan;95735.91;4861505;29;20755;-68
2021/01/03 06:51:10;;;;;;;13.73;7.20;;;;;;;1.62;nan;95732.06;4878755;29;20208;-67
2021/01/03 06:54:12;;;;;;;12.23;7.45;;;;;;;1.62;nan;95729.50;4877090;29;20304;-66
2021/01/03 06:57:01;;;;;;;16.17;8.07;;;;;;;1.62;nan;95729.50;4878514;29;20844;-66
2021/01/03 07:00:03;;;;;;;14.00;8.52;;;;;;;1.59;nan;95727.06;4880406;29;20394;-67
2021/01/03 07:02:33;;;;;;;13.32;7.70;;;;;;;1.60;nan;95723.59;4876866;29;20410;-66
2021/01/03 07:05:07;;;;;;;13.15;7.80;;;;;;;1.64;nan;95732.00;4879591;29;20232;-67
2021/01/03 07:07:37;;;;;;;13.25;7.55;;;;;;;1.60;nan;95731.31;4879961;29;20235;-67
2021/01/03 07:10:19;;;;;;;12.95;7.47;;;;;;;1.62;nan;95729.50;4876157;29;20208;-66
2021/01/03 07:12:49;;;;;;;10.45;6.80;;;;;;;1.59;nan;95732.22;4880262;29;20251;-68
2021/01/03 07:15:40;;;;;;;10.88;5.80;;;;;;;1.56;nan;95744.31;4875528;29;20309;-68
2021/01/03 07:18:29;;;;;;;10.68;7.07;;;;;;;1.57;nan;95744.25;4878869;29;20749;-67
2021/01/03 07:21:13;;;;;;;12.02;7.03;;;;;;;1.54;nan;95738.44;4879609;29;20547;-67
2021/01/03 07:23:42;;;;;;;10.57;7.32;;;;;;;1.53;nan;95740.13;4883067;29;20593;-67
2021/01/03 07:26:20;;;;;;;11.80;7.32;;;;;;;1.49;nan;95745.47;4879907;29;20292;-67
2021/01/03 07:28:50;;;;;;;14.45;7.70;;;;;;;1.58;nan;95753.63;4880091;29;20769;-67
2021/01/03 07:31:38;;;;;;;11.95;8.05;;;;;;;1.63;nan;95753.44;4878991;29;20566;-67
2021/01/03 07:34:07;;;;;;;12.20;6.90;;;;;;;1.58;nan;95752.78;4879419;29;20763;-67
2021/01/03 07:36:44;;;;;;;13.07;7.50;;;;;;;1.52;nan;95753.00;4886331;29;20248;-67
2021/01/03 07:39:17;;;;;;;17.63;8.48;;;;;;;1.57;nan;95751.09;4875290;29;20287;-68
2021/01/03 07:41:45;;;;;;;16.33;8.65;;;;;;;1.63;nan;95754.25;4880847;29;20527;-68
2021/01/03 07:44:28;;;;;;;13.77;8.15;;;;;;;1.59;nan;95747.59;4881540;29;20225;-67
2021/01/03 07:46:57;;;;;;;13.60;7.55;;;;;;;1.67;nan;95755.78;4883224;29;20273;-67
2021/01/03 07:49:37;;;;;;;10.75;6.70;;;;;;;1.64;nan;95752.53;4883081;29;20237;-67
2021/01/03 07:52:26;;;;;;;10.90;6.78;;;;;;;1.62;nan;95765.41;4878260;29;20611;-68
2021/01/03 07:54:56;;;;;;;17.17;8.90;;;;;;;1.66;nan;95764.38;4879228;29;20280;-67
2021/01/03 07:57:26;;;;;;;13.48;7.45;;;;;;;1.62;nan;95765.41;4880987;29;20606;-69
2021/01/03 07:59:54;;;;;;;12.10;7.55;;;;;;;1.68;nan;95767.72;4880639;29;20511;-68
2021/01/03 08:02:25;;;;;;;16.02;8.52;;;;;;;1.72;nan;95769.28;4881058;29;20637;-67
2021/01/03 08:04:54;;;;;;;14.77;8.48;;;;;;;1.76;nan;95768.22;4882684;29;20224;-67
2021/01/03 08:07:22;;;;;;;14.10;8.18;;;;;;;1.84;nan;95770.50;4883251;29;20323;-67
2021/01/03 08:09:49;;;;;;;12.18;7.45;;;;;;;1.82;nan;95773.13;4883956;29;20193;-67
2021/01/03 08:12:22;;;;;;;13.90;8.45;;;;;;;1.81;nan;95768.88;4877062;29;20324;-68
2021/01/03 08:15:00;;;;;;;14.75;7.53;;;;;;;1.88;nan;95772.00;4884731;29;20661;-68
2021/01/03 08:17:34;;;;;;;16.88;9.10;;;;;;;1.89;nan;95776.25;4879454;29;20315;-68
2021/01/03 08:20:04;;;;;;;16.80;9.40;;;;;;;1.89;nan;95773.69;4882550;29;20201;-65
2021/01/03 08:22:32;;;;;;;12.52;8.25;;;;;;;1.92;nan;95774.38;4883003;29;20236;-68
2021/01/03 08:25:02;;;;;;;13.90;8.75;;;;;;;1.87;nan;95766.06;4883926;29;20502;-68
2021/01/03 08:27:39;;;;;;;13.82;8.80;;;;;;;1.77;nan;95766.50;4883276;29;20236;-67
2021/01/03 08:30:10;;;;;;;18.30;10.20;;;;;;;1.83;nan;95769.66;4881457;29;20637;-67
2021/01/03 08:32:39;;;;;;;14.65;8.85;;;;;;;1.88;nan;95769.44;4883404;29;20236;-67
2021/01/03 08:35:11;;;;;;;15.50;9.77;;;;;;;1.92;nan;95771.00;4884110;29;20203;-67
2021/01/03 08:37:42;;;;;;;15.82;7.28;;;;;;;1.97;nan;95781.88;4887387;29;20756;-68
2021/01/03 08:40:26;;;;;;;14.60;8.45;;;;;;;1.95;nan;95781.97;4883975;29;20586;-67
2021/01/03 08:42:59;;;;;;;13.60;8.38;;;;;;;1.95;nan;95781.13;4882418;29;20300;-67
2021/01/03 08:45:33;;;;;;;16.25;8.77;;;;;;;1.98;nan;95788.72;4883506;29;20748;-68
2021/01/03 08:48:04;;;;;;;12.35;7.28;;;;;;;2.00;nan;95787.72;4881280;29;20950;-68
2021/01/03 08:50:34;;;;;;;10.57;7.25;;;;;;;2.01;nan;95783.44;4886093;29;20641;-67
2021/01/03 08:53:04;;;;;;;15.52;8.25;;;;;;;1.98;nan;95781.84;4880625;29;20808;-67
2021/01/03 08:55:34;;;;;;;11.73;7.32;;;;;;;2.08;nan;95793.41;4882220;29;20288;-67
2021/01/03 08:58:04;;;;;;;12.05;8.35;;;;;;;2.03;nan;95797.88;4880611;29;20249;-67
2021/01/03 09:00:34;;;;;;;12.20;7.72;;;;;;;2.07;nan;95798.59;4888266;29;20712;-67
2021/01/03 09:03:02;;;;;;;10.48;6.80;;;;;;;2.17;nan;95803.25;4879694;29;20668;-68
2021/01/03 09:05:33;;;;;;;15.05;8.20;;;;;;;2.20;nan;95803.13;4883211;29;20612;-67
2021/01/03 09:08:04;;;;;;;12.48;7.32;;;;;;;2.26;nan;95805.44;4878963;29;20521;-68
2021/01/03 09:10:36;;;;;;;9.85;6.90;;;;;;;2.25;nan;95802.94;4885027;29;20708;-68
2021/01/03 09:13:21;;;;;;;12.73;7.70;;;;;;;2.30;nan;95812.13;4878733;29;20547;-68
2021/01/03 09:16:07;;;;;;;13.25;7.70;;;;;;;2.36;nan;95811.84;4883268;29;20259;-68
2021/01/03 09:18:39;;;;;;;12.20;7.18;;;;;;;2.46;nan;95812.28;4878406;29;20555;-68
2021/01/03 09:21:11;;;;;;;13.15;8.23;;;;;;;2.43;nan;95813.25;4881498;29;20918;-67
2021/01/03 09:23:42;;;;;;;14.30;8.10;;;;;;;2.39;nan;95816.84;4882991;29;20699;-70
2021/01/03 09:26:10;;;;;;;13.27;7.85;;;;;;;2.41;nan;95815.03;4882336;29;20305;-69
2021/01/03 09:28:40;;;;;;;10.18;6.32;;;;;;;2.43;nan;95823.50;4882342;29;20910;-68
2021/01/03 09:31:18;;;;;;;11.90;7.75;;;;;;;2.43;nan;95820.94;4884916;29;20557;-67
2021/01/03 09:33:49;;;;;;;13.02;7.97;;;;;;;2.42;nan;95795.34;4881494;29;20655;-68
2021/01/03 09:36:41;;;;;;;13.30;6.80;;;;;;;2.61;nan;95817.59;4881292;29;20200;-67
2021/01/03 09:39:27;;;;;;;12.25;6.82;;;;;;;2.63;nan;95831.19;4886924;29;20288;-67
2021/01/03 09:42:30;;;;;;;12.98;6.30;;;;;;;2.57;nan;95821.19;4879228;29;20758;-67
2021/01/03 09:45:05;;;;;;;12.00;7.15;;;;;;;2.66;nan;95827.66;4881338;29;20715;-68
2021/01/03 09:47:41;;;;;;;14.18;7.03;;;;;;;2.73;nan;95834.19;4880767;29;20636;-67
2021/01/03 09:50:25;;;;;;;11.45;7.45;;;;;;;2.81;nan;95819.28;4882072;29;20579;-67
2021/01/03 09:52:59;;;;;;;11.45;7.38;;;;;;;2.78;nan;95827.94;4886344;29;20414;-68
2021/01/03 09:55:31;;;;;;;13.45;7.82;;;;;;;2.75;nan;95828.09;4883625;29;20228;-67
2021/01/03 09:58:03;;;;;;;16.17;7.32;;;;;;;2.82;nan;95820.94;4881064;29;20867;-67
2021/01/03 10:00:50;;;;;;;14.43;7.70;;;;;;;2.96;nan;95816.03;4884861;29;20671;-68
2021/01/03 10:03:20;;;;;;;12.65;7.72;;;;;;;3.02;nan;95818.31;4877379;29;20734;-67
2021/01/03 10:05:49;;;;;;;14.57;8.60;;;;;;;3.04;nan;95822.50;4883843;29;20663;-67
2021/01/03 10:08:20;;;;;;;11.25;6.57;;;;;;;3.03;nan;95818.22;4877459;29;20338;-67
2021/01/03 10:10:50;;;;;;;13.98;7.95;;;;;;;3.02;nan;95814.00;4881800;29;20720;-68
2021/01/03 10:13:19;;;;;;;15.93;7.82;;;;;;;2.93;nan;95811.84;4877572;29;20746;-67
2021/01/03 10:15:49;;;;;;;15.00;7.60;;;;;;;2.79;nan;95798.78;4881511;29;20232;-67
2021/01/03 10:18:29;;;;;;;12.25;7.13;;;;;;;2.87;nan;95814.69;4885896;29;20596;-67
2021/01/03 10:20:57;;;;;;;15.35;7.63;;;;;;;2.88;nan;95815.53;4878263;29;20320;-67
2021/01/03 10:23:34;;;;;;;18.20;6.90;;;;;;;2.86;nan;95813.03;4888504;29;20308;-67
2021/01/03 10:26:05;;;;;;;14.25;7.88;;;;;;;2.84;nan;95809.69;4880273;29;20213;-68
2021/01/03 10:28:32;;;;;;;12.13;7.40;;;;;;;2.92;nan;95812.75;4881218;29;20233;-68
2021/01/03 10:30:59;;;;;;;13.15;8.15;;;;;;;2.93;nan;95811.84;4881983;29;20208;-67
2021/01/03 10:33:26;;;;;;;13.60;7.82;;;;;;;2.91;nan;95811.09;4884236;29;20305;-68
2021/01/03 10:35:54;;;;;;;18.55;9.80;;;;;;;3.01;nan;95807.19;4884148;29;20685;-68
2021/01/03 10:38:21;;;;;;;15.93;8.60;;;;;;;3.12;nan;95804.13;4883663;29;20605;-68
2021/01/03 10:40:48;;;;;;;11.30;7.32;;;;;;;3.09;nan;95802.53;4887361;29;20268;-67
2021/01/03 10:43:19;;;;;;;15.57;7.45;;;;;;;3.17;nan;95797.06;4883850;29;20296;-67
2021/01/03 10:45:49;;;;;;;15.02;8.82;;;;;;;3.44;nan;95796.59;4886297;29;20601;-68
2021/01/03 10:48:16;;;;;;;16.90;8.05;;;;;;;3.55;nan;95798.66;4880108;29;20230;-67
2021/01/03 10:50:43;;;;;;;10.70;7.18;;;;;;;3.70;nan;95793.63;4885412;29;20437;-67
2021/01/03 10:53:10;;;;;;;12.25;7.18;;;;;;;3.92;nan;95795.06;4881217;29;20635;-68
2021/01/03 10:55:37;;;;;;;12.65;6.80;;;;;;;4.03;nan;95796.28;4880897;29;20218;-68
2021/01/03 10:58:04;;;;;;;48.65;23.88;;;;;;;4.05;nan;95790.97;4881821;29;20679;-67
2021/01/03 11:00:32;;;;;;;17.38;10.85;;;;;;;3.79;nan;95788.03;4883873;29;20205;-66
2021/01/03 11:02:59;;;;;;;12.30;7.45;;;;;;;3.74;nan;95789.97;4883075;29;20236;-67
2021/01/03 11:05:26;;;;;;;12.18;8.95;;;;;;;3.73;nan;95780.59;4881856;29;20324;-67
2021/01/03 11:07:53;;;;;;;12.23;8.25;;;;;;;3.75;nan;95790.81;4880295;29;20221;-67
2021/01/03 11:10:19;;;;;;;14.07;8.30;;;;;;;3.68;nan;95784.31;4880475;29;20664;-68
2021/01/03 11:12:46;;;;;;;12.82;8.00;;;;;;;3.72;nan;95778.94;4879846;29;20252;-67
2021/01/03 11:15:16;;;;;;;12.70;6.93;;;;;;;3.65;nan;95779.28;4885705;29;20221;-68
2021/01/03 11:17:53;;;;;;;15.73;8.38;;;;;;;3.64;nan;95783.63;4887000;29;20671;-68
2021/01/03 11:20:21;;;;;;;13.27;8.70;;;;;;;3.48;nan;95780.13;4881780;29;20493;-68
2021/01/03 11:22:51;;;;;;;14.82;8.98;;;;;;;3.53;nan;95785.88;4881838;29;20664;-67
2021/01/03 11:25:24;;;;;;;14.30;8.73;;;;;;;3.53;nan;95780.72;4875702;29;20576;-68
2021/01/03 11:27:51;;;;;;;14.43;9.43;;;;;;;3.63;nan;95786.25;4881035;29;20311;-67
2021/01/03 11:30:19;;;;;;;15.05;8.20;;;;;;;3.46;nan;95781.91;4880509;29;20227;-68
2021/01/03 11:32:46;;;;;;;14.75;8.50;;;;;;;3.51;nan;95782.53;4878987;29;20790;-67
2021/01/03 11:35:16;;;;;;;14.57;8.13;;;;;;;3.46;nan;95783.69;4881775;29;20205;-66
2021/01/03 11:37:43;;;;;;;18.35;8.27;;;;;;;3.43;nan;95787.22;4882055;29;20307;-66
2021/01/03 11:40:11;;;;;;;16.25;8.88;;;;;;;3.46;nan;95778.53;4883810;29;20234;-67
2021/01/03 11:42:39;;;;;;;15.65;9.18;;;;;;;3.42;nan;95782.97;4885125;29;20627;-67
2021/01/03 11:45:09;;;;;;;15.13;8.45;;;;;;;3.42;nan;95782.97;4885554;29;20540;-66
2021/01/03 11:47:37;;;;;;;125.75;56.50;;;;;;;3.38;nan;95784.03;4884142;29;20257;-67
2021/01/03 11:50:06;;;;;;;28.90;14.50;;;;;;;3.27;nan;95783.72;4887654;29;20500;-66
2021/01/03 11:52:39;;;;;;;18.55;9.68;;;;;;;3.34;nan;95776.53;4884345;29;20796;-67
2021/01/03 11:55:10;;;;;;;9.70;7.03;;;;;;;3.45;nan;95777.69;4886572;29;20656;-67
2021/01/03 11:57:38;;;;;;;11.90;7.70;;;;;;;3.39;nan;95770.25;4883483;29;20231;-69
2021/01/03 12:00:18;;;;;;;14.80;6.75;;;;;;;3.31;nan;95774.94;4889323;29;20236;-67
2021/01/03 12:02:45;;;;;;;12.55;6.90;;;;;;;3.31;nan;95769.78;4892603;29;20232;-67
2021/01/03 12:05:24;;;;;;;14.80;8.02;;;;;;;3.42;nan;95774.41;4889149;29;20241;-67
2021/01/03 12:07:53;;;;;;;13.23;7.38;;;;;;;3.39;nan;95772.81;4892074;29;20798;-68
2021/01/03 12:10:20;;;;;;;11.70;7.30;;;;;;;3.43;nan;95776.94;4886199;29;20241;-67
2021/01/03 12:12:48;;;;;;;11.88;7.03;;;;;;;3.40;nan;95777.09;4882819;29;20229;-67